Time;durP1;ratioP1;P1;durP2;ratioP2;P2;SDS_P1;SDS_P2;PMS_P1;PMS_P2;Temp;Humidity;BMP_temperature;BMP_pressure;BME280_temperature;BME280_humidity;BME280_pressure;Samples;Min_cycle;Max_cycle;Signal;HPM_P1;HPM_P2
2022/01/24 00:00:17;;;;;;;2.65;0.73;;;24.60;87.70;;;;;;5074099;28;20024;-52
2022/01/24 00:02:48;;;;;;;3.78;0.47;;;24.60;87.60;;;;;;5073964;28;20160;-61
2022/01/24 00:05:19;;;;;;;3.92;1.23;;;24.60;87.60;;;;;;5074659;28;20457;-59
2022/01/24 00:07:46;;;;;;;1.55;0.40;;;24.50;87.30;;;;;;5074815;28;20313;-54
2022/01/24 00:10:18;;;;;;;0.70;0.50;;;24.60;87.40;;;;;;5074335;28;20494;-59
2022/01/24 00:18:27;;;;;;;4.55;0.82;;;24.50;87.60;;;;;;5073941;28;20433;-58
2022/01/24 00:29:28;;;;;;;2.63;0.77;;;24.50;88.00;;;;;;5059241;28;20150;-57
2022/01/24 00:31:56;;;;;;;1.00;0.30;;;24.60;87.70;;;;;;5073629;28;20028;-60
2022/01/24 00:34:24;;;;;;;0.68;0.30;;;24.50;88.20;;;;;;5073687;28;20450;-51
2022/01/24 00:36:53;;;;;;;1.13;0.43;;;24.60;87.90;;;;;;5073606;28;20036;-57
2022/01/24 00:39:24;;;;;;;1.20;0.57;;;24.60;87.40;;;;;;5074247;28;20021;-58
2022/01/24 00:45:01;;;;;;;5.00;1.00;;;24.60;88.00;;;;;;5073916;28;20205;-60
2022/01/24 00:47:43;;;;;;;0.77;0.32;;;24.60;86.30;;;;;;5073967;28;20025;-59
2022/01/24 00:55:25;;;;;;;0.77;0.40;;;24.70;87.40;;;;;;5073211;28;20078;-59
2022/01/24 00:57:52;;;;;;;0.63;0.40;;;24.70;88.10;;;;;;5072991;28;20328;-59
2022/01/24 01:00:20;;;;;;;2.67;0.60;;;24.70;87.80;;;;;;5072782;28;20173;-60
2022/01/24 01:02:47;;;;;;;0.77;0.43;;;24.70;87.00;;;;;;5071658;28;20405;-58
2022/01/24 01:06:04;;;;;;;0.65;0.35;;;24.70;86.60;;;;;;5072507;28;20025;-57
2022/01/24 01:18:06;;;;;;;3.13;0.40;;;24.70;87.60;;;;;;5065509;28;20168;-60
2022/01/24 01:19:08;;;;;;;3.20;0.85;;;24.70;87.70;;;;;;5072685;28;20128;-56
2022/01/24 01:21:36;;;;;;;1.33;0.30;;;24.70;85.50;;;;;;5072790;28;20387;-53
2022/01/24 01:24:04;;;;;;;0.77;0.25;;;24.70;86.30;;;;;;5072839;28;20206;-52
2022/01/24 01:26:47;;;;;;;1.25;0.30;;;24.80;86.40;;;;;;5073020;28;20020;-58
2022/01/24 01:29:20;;;;;;;2.30;0.75;;;24.80;87.80;;;;;;5072802;28;20048;-54
2022/01/24 01:31:59;;;;;;;1.25;0.55;;;24.80;87.60;;;;;;5071636;28;20435;-54
2022/01/24 01:34:47;;;;;;;0.93;0.68;;;24.90;87.60;;;;;;5072606;28;20382;-56
2022/01/24 01:37:45;;;;;;;0.63;0.40;;;24.90;87.90;;;;;;5072245;28;20078;-58
2022/01/24 01:40:38;;;;;;;6.32;0.95;;;24.90;87.90;;;;;;5072065;28;20038;-59
2022/01/24 01:54:15;;;;;;;1.38;0.47;;;24.90;87.50;;;;;;5072422;28;20039;-57
2022/01/24 01:56:43;;;;;;;2.95;0.40;;;24.90;87.60;;;;;;5071951;28;20045;-55
2022/01/24 01:59:11;;;;;;;0.47;0.40;;;24.90;87.80;;;;;;5072317;28;20016;-56
2022/01/24 02:01:41;;;;;;;0.90;0.60;;;24.90;87.40;;;;;;5070616;28;20385;-54
2022/01/24 02:04:09;;;;;;;11.77;0.95;;;24.90;87.70;;;;;;5072508;28;20072;-59
2022/01/24 02:06:38;;;;;;;0.65;0.47;;;25.00;87.90;;;;;;5073612;28;20103;-56
2022/01/24 02:09:09;;;;;;;2.03;0.55;;;25.00;87.60;;;;;;5072866;28;20041;-62
2022/01/24 02:11:37;;;;;;;5.65;1.10;;;25.00;87.60;;;;;;5072264;28;20352;-60
2022/01/24 02:14:10;;;;;;;1.83;0.60;;;25.10;87.60;;;;;;5071629;28;20039;-59
2022/01/24 02:17:02;;;;;;;5.45;0.70;;;25.10;87.30;;;;;;5072292;28;20139;-55
2022/01/24 02:19:50;;;;;;;;;;;;;;;;;;;;;
2022/01/24 02:24:40;;;;;;;1.23;0.50;;;25.10;87.10;;;;;;5071719;28;20441;-55
2022/01/24 02:27:10;;;;;;;1.50;0.50;;;25.20;87.10;;;;;;5072052;28;20013;-55
2022/01/24 02:32:12;;;;;;;6.55;0.90;;;25.20;87.20;;;;;;5071635;28;20329;-58
2022/01/24 02:34:43;;;;;;;1.38;0.40;;;25.20;87.30;;;;;;5071494;28;20533;-60
2022/01/24 02:37:14;;;;;;;2.65;0.57;;;25.20;86.90;;;;;;5070343;28;20060;-61
2022/01/24 02:51:13;;;;;;;2.13;0.75;;;25.40;86.50;;;;;;5071683;28;20141;-58
2022/01/24 02:53:37;;;;;;;0.85;0.50;;;25.40;86.60;;;;;;5071547;28;20047;-56
2022/01/24 02:56:05;;;;;;;0.90;0.50;;;25.40;86.50;;;;;;5071077;28;20351;-56
2022/01/24 02:58:34;;;;;;;21.95;2.15;;;25.40;86.50;;;;;;5071525;28;20025;-57
2022/01/24 03:01:06;;;;;;;9.57;1.23;;;25.40;85.60;;;;;;5071752;28;20093;-56
2022/01/24 03:03:36;;;;;;;1.73;0.45;;;25.50;84.90;;;;;;5072459;28;20039;-57
2022/01/24 03:06:04;;;;;;;2.13;0.45;;;25.50;85.90;;;;;;5071288;28;20028;-59
2022/01/24 03:08:32;;;;;;;1.15;0.50;;;25.40;86.00;;;;;;5071683;28;20044;-65
2022/01/24 03:11:00;;;;;;;1.20;0.30;;;25.40;86.30;;;;;;5072170;28;20401;-63
2022/01/24 03:15:57;;;;;;;0.57;0.35;;;25.50;86.10;;;;;;5070340;28;20388;-60
2022/01/24 03:18:25;;;;;;;1.73;0.47;;;25.50;86.20;;;;;;5071209;28;20029;-63
2022/01/24 03:20:53;;;;;;;1.75;0.47;;;25.50;85.90;;;;;;5071121;28;20103;-59
2022/01/24 03:23:23;;;;;;;2.83;0.88;;;25.50;86.20;;;;;;5071132;28;20028;-58
2022/01/24 03:25:51;;;;;;;1.80;0.55;;;25.50;86.40;;;;;;5071248;28;20028;-59
2022/01/24 03:28:18;;;;;;;1.05;0.35;;;25.50;86.20;;;;;;5053235;28;20028;-56
2022/01/24 03:30:47;;;;;;;7.60;0.80;;;25.60;86.10;;;;;;5071281;28;20517;-61
2022/01/24 03:33:18;;;;;;;2.10;0.38;;;25.60;86.10;;;;;;5070191;28;20029;-60
2022/01/24 03:35:46;;;;;;;0.43;0.30;;;25.60;86.40;;;;;;5071039;28;20120;-59
2022/01/24 03:38:14;;;;;;;1.27;0.35;;;25.50;86.40;;;;;;5071129;28;20082;-60
2022/01/24 03:40:42;;;;;;;3.13;0.60;;;25.50;86.50;;;;;;5070761;28;20033;-59
2022/01/24 03:43:10;;;;;;;8.73;1.08;;;25.60;86.40;;;;;;5071329;28;20471;-62
2022/01/24 03:48:10;;;;;;;14.50;1.20;;;25.60;85.50;;;;;;5070863;28;20021;-55
2022/01/24 03:50:41;;;;;;;6.80;0.80;;;25.70;85.50;;;;;;5070016;28;20040;-57
2022/01/24 03:53:08;;;;;;;12.60;1.03;;;25.70;85.80;;;;;;5071775;28;20021;-57
2022/01/24 03:55:39;;;;;;;5.97;0.65;;;25.80;85.40;;;;;;5073056;28;20293;-60
2022/01/24 03:58:06;;;;;;;11.63;0.75;;;25.70;85.40;;;;;;5074798;28;20043;-62
2022/01/24 04:00:37;;;;;;;0.30;0.20;;;25.80;85.60;;;;;;5073972;28;20024;-52
2022/01/24 04:03:04;;;;;;;0.98;0.30;;;25.70;86.20;;;;;;5075074;28;20027;-58
2022/01/24 04:05:35;;;;;;;4.32;0.32;;;25.60;86.00;;;;;;5075023;28;20044;-60
2022/01/24 04:08:02;;;;;;;1.17;0.50;;;25.70;86.40;;;;;;5074887;28;20410;-63
2022/01/24 04:10:39;;;;;;;0.60;0.40;;;25.60;86.40;;;;;;5074557;28;20400;-59
2022/01/24 04:16:11;;;;;;;0.85;0.30;;;25.70;86.10;;;;;;5074704;28;20071;-59
2022/01/24 04:18:52;;;;;;;9.60;1.48;;;25.70;86.70;;;;;;5073987;28;20363;-62
2022/01/24 04:21:25;;;;;;;1.08;0.50;;;25.80;86.30;;;;;;5074161;28;20120;-59
2022/01/24 04:24:10;;;;;;;4.82;0.60;;;25.80;86.30;;;;;;5073037;28;20416;-55
2022/01/24 04:26:39;;;;;;;3.45;0.60;;;25.90;86.10;;;;;;5075382;28;20028;-60
2022/01/24 04:29:08;;;;;;;7.43;0.60;;;26.00;85.70;;;;;;5075274;28;20040;-52
2022/01/24 04:31:36;;;;;;;1.20;0.60;;;26.10;85.10;;;;;;5074246;28;20021;-62
2022/01/24 04:34:05;;;;;;;1.65;0.60;;;26.00;85.50;;;;;;5074816;28;20078;-58
2022/01/24 04:36:33;;;;;;;2.50;0.50;;;25.90;85.50;;;;;;5075000;28;20060;-53
2022/01/24 04:39:04;;;;;;;1.00;0.30;;;26.00;85.50;;;;;;5075769;28;20021;-56
2022/01/24 04:41:38;;;;;;;2.00;0.40;;;26.00;85.40;;;;;;5075421;28;20117;-60
2022/01/24 04:44:42;;;;;;;5.88;0.90;;;26.00;85.40;;;;;;5074309;28;20031;-55
2022/01/24 04:47:18;;;;;;;11.60;1.10;;;26.00;84.90;;;;;;5074306;28;20070;-62
2022/01/24 04:55:00;;;;;;;1.95;0.60;;;26.10;84.90;;;;;;5074667;28;20071;-65
2022/01/24 04:57:31;;;;;;;13.50;1.60;;;26.10;85.20;;;;;;5073382;28;20027;-60
2022/01/24 05:00:01;;;;;;;7.97;0.77;;;26.10;83.90;;;;;;5073034;28;20127;-58
2022/01/24 05:02:29;;;;;;;1.40;0.60;;;26.10;84.10;;;;;;5073158;28;20350;-61
2022/01/24 05:04:56;;;;;;;0.65;0.38;;;26.10;85.50;;;;;;5074392;28;20401;-59
2022/01/24 05:07:24;;;;;;;5.20;0.80;;;26.00;85.90;;;;;;5073724;28;20041;-60
2022/01/24 05:26:12;;;;;;;7.78;0.75;;;26.00;85.90;;;;;;5050369;28;20040;-53
2022/01/24 05:28:40;;;;;;;1.92;0.60;;;26.00;85.70;;;;;;5073718;28;20519;-53
2022/01/24 05:31:08;;;;;;;6.25;0.50;;;26.10;85.50;;;;;;5073881;28;20044;-60
2022/01/24 05:33:35;;;;;;;3.42;0.65;;;26.10;85.60;;;;;;5073719;28;20105;-58
2022/01/24 05:36:03;;;;;;;2.55;0.70;;;26.20;85.00;;;;;;5073447;28;20056;-58
2022/01/24 05:38:30;;;;;;;1.75;0.47;;;26.20;84.70;;;;;;5073413;28;20494;-61
2022/01/24 05:40:58;;;;;;;0.75;0.38;;;26.20;84.90;;;;;;5073690;28;20067;-51
2022/01/24 05:43:25;;;;;;;2.15;0.47;;;26.20;86.10;;;;;;5073014;28;20017;-59
2022/01/24 05:45:53;;;;;;;5.13;0.88;;;26.20;85.20;;;;;;5073259;28;20393;-60
2022/01/24 05:48:20;;;;;;;3.42;0.50;;;26.20;85.30;;;;;;5072983;28;20125;-59
2022/01/24 05:50:47;;;;;;;3.25;0.52;;;26.20;85.30;;;;;;5073522;28;20048;-59
2022/01/24 05:53:15;;;;;;;0.93;0.43;;;26.10;85.70;;;;;;5073952;28;20044;-57
2022/01/24 05:55:42;;;;;;;1.50;0.43;;;26.10;85.60;;;;;;5073798;28;20063;-55
2022/01/24 05:58:10;;;;;;;2.20;0.40;;;26.10;85.90;;;;;;5072763;28;20020;-55
2022/01/24 06:00:37;;;;;;;0.63;0.40;;;26.00;85.90;;;;;;5073260;28;20060;-59
2022/01/24 06:03:05;;;;;;;1.27;0.50;;;26.00;86.20;;;;;;5073197;28;20241;-56
2022/01/24 06:05:32;;;;;;;1.30;0.50;;;25.90;86.30;;;;;;5073078;28;20107;-58
2022/01/24 06:08:00;;;;;;;1.00;0.38;;;25.90;86.50;;;;;;5073142;28;20063;-57
2022/01/24 06:10:27;;;;;;;1.77;0.45;;;25.90;86.40;;;;;;5072802;28;20136;-56
2022/01/24 06:12:55;;;;;;;1.15;0.43;;;25.90;86.50;;;;;;5072887;28;20060;-60
2022/01/24 06:15:22;;;;;;;2.35;0.70;;;25.90;86.20;;;;;;5071848;28;20028;-58
2022/01/24 06:17:54;;;;;;;2.80;0.65;;;25.90;86.80;;;;;;5072152;28;20059;-55
2022/01/24 06:20:22;;;;;;;2.28;0.82;;;25.90;86.80;;;;;;5071695;28;20408;-62
2022/01/24 06:22:50;;;;;;;0.68;0.38;;;25.90;86.70;;;;;;5072068;28;20036;-57
2022/01/24 06:25:23;;;;;;;1.65;0.70;;;25.90;86.90;;;;;;5071272;28;20096;-61
2022/01/24 06:27:52;;;;;;;2.05;0.50;;;26.00;86.50;;;;;;5072303;28;20029;-58
2022/01/24 06:30:20;;;;;;;1.27;0.38;;;26.00;86.40;;;;;;5072333;28;20162;-58
2022/01/24 06:32:47;;;;;;;5.00;0.70;;;25.90;86.90;;;;;;5072454;28;20324;-57
2022/01/24 06:35:15;;;;;;;1.45;0.52;;;25.90;86.50;;;;;;5072408;28;20036;-62
2022/01/24 06:37:43;;;;;;;1.63;0.60;;;25.90;86.70;;;;;;5071460;28;20025;-63
2022/01/24 06:40:12;;;;;;;1.08;0.43;;;25.90;86.60;;;;;;5072849;28;20052;-58
2022/01/24 06:42:39;;;;;;;0.93;0.30;;;25.80;87.00;;;;;;5071271;28;20352;-58
2022/01/24 06:45:08;;;;;;;0.68;0.40;;;25.80;87.10;;;;;;5072464;28;20036;-52
2022/01/24 06:47:36;;;;;;;2.90;0.40;;;25.80;87.50;;;;;;5072557;28;20024;-60
2022/01/24 06:50:05;;;;;;;1.85;0.55;;;25.70;87.20;;;;;;5071978;28;20032;-58
2022/01/24 06:52:32;;;;;;;2.08;0.80;;;25.70;87.50;;;;;;5072429;28;20025;-53
2022/01/24 06:55:00;;;;;;;2.00;0.60;;;25.70;87.20;;;;;;5072277;28;20052;-52
2022/01/24 06:57:27;;;;;;;1.23;0.40;;;25.70;87.70;;;;;;5070811;28;20033;-59
2022/01/24 06:59:55;;;;;;;0.60;0.38;;;25.60;87.90;;;;;;5070699;28;20094;-55
2022/01/24 07:02:22;;;;;;;1.50;0.60;;;25.60;88.10;;;;;;5072109;28;20024;-53
2022/01/24 07:04:49;;;;;;;11.32;1.35;;;25.70;88.20;;;;;;5072111;28;20055;-57
2022/01/24 07:07:17;;;;;;;5.88;1.48;;;25.70;88.20;;;;;;5072308;28;20475;-54
2022/01/24 07:09:44;;;;;;;4.88;1.08;;;25.70;87.80;;;;;;5071978;28;20041;-56
2022/01/24 07:12:12;;;;;;;4.25;1.20;;;25.80;87.90;;;;;;5072039;28;20242;-53
2022/01/24 07:14:41;;;;;;;2.40;1.20;;;25.70;88.00;;;;;;5072012;28;20101;-52
2022/01/24 07:17:27;;;;;;;1.10;0.60;;;25.80;88.20;;;;;;5071735;28;20092;-51
2022/01/24 07:19:54;;;;;;;4.45;1.00;;;25.80;88.50;;;;;;5071898;28;20031;-51
2022/01/24 07:22:22;;;;;;;3.20;0.98;;;25.80;88.40;;;;;;5071384;28;20425;-53
2022/01/24 07:24:49;;;;;;;4.32;1.70;;;25.70;88.00;;;;;;5071485;28;20024;-54
2022/01/24 07:27:17;;;;;;;5.22;0.90;;;25.70;88.00;;;;;;5071540;28;20025;-52
2022/01/24 07:29:44;;;;;;;3.75;1.13;;;25.60;87.90;;;;;;5071913;28;20398;-52
2022/01/24 07:32:13;;;;;;;3.50;0.90;;;25.60;88.10;;;;;;5075597;28;20012;-57
2022/01/24 07:34:41;;;;;;;4.05;0.95;;;25.60;88.00;;;;;;5075429;28;20401;-52
2022/01/24 07:37:08;;;;;;;4.85;1.77;;;25.60;88.70;;;;;;5074195;28;20101;-54
2022/01/24 07:39:36;;;;;;;3.13;0.82;;;25.60;88.40;;;;;;5075224;28;20028;-58
2022/01/24 07:42:14;;;;;;;3.83;1.27;;;25.60;88.80;;;;;;5075259;28;20112;-49
2022/01/24 07:44:42;;;;;;;6.63;1.30;;;25.50;89.20;;;;;;5075342;28;20424;-50
2022/01/24 07:47:10;;;;;;;3.78;1.10;;;25.50;89.80;;;;;;5073785;28;20024;-50
2022/01/24 07:49:37;;;;;;;2.85;1.05;;;25.50;90.00;;;;;;5073444;28;20117;-59
2022/01/24 07:52:05;;;;;;;8.25;1.23;;;25.50;89.80;;;;;;5074982;28;20089;-56
2022/01/24 07:54:32;;;;;;;4.38;1.17;;;25.50;89.90;;;;;;5075105;28;20028;-55
2022/01/24 07:57:00;;;;;;;5.15;1.10;;;25.50;89.60;;;;;;5075216;28;20517;-57
2022/01/24 07:59:27;;;;;;;2.78;0.93;;;25.60;90.30;;;;;;5075309;28;20028;-53
2022/01/24 08:01:55;;;;;;;7.20;1.50;;;25.60;89.80;;;;;;5074790;28;20025;-58
2022/01/24 08:04:22;;;;;;;9.45;1.88;;;25.60;90.10;;;;;;5075857;28;20428;-56
2022/01/24 08:06:49;;;;;;;6.60;1.25;;;25.50;90.10;;;;;;5075927;28;20025;-54
2022/01/24 08:09:17;;;;;;;10.32;1.40;;;25.50;90.50;;;;;;5076272;28;20021;-64
2022/01/24 08:11:44;;;;;;;8.63;1.77;;;25.50;90.40;;;;;;5076088;28;20108;-59
2022/01/24 08:14:12;;;;;;;11.10;1.77;;;25.50;90.70;;;;;;5075090;28;20047;-62
2022/01/24 08:16:40;;;;;;;7.60;1.85;;;25.50;91.10;;;;;;5074901;28;20062;-60
2022/01/24 08:19:07;;;;;;;14.73;2.40;;;25.50;91.00;;;;;;5074983;28;20028;-62
2022/01/24 08:21:35;;;;;;;6.15;1.58;;;25.50;91.10;;;;;;5075678;28;20063;-64
2022/01/24 08:24:02;;;;;;;13.10;2.65;;;25.50;90.90;;;;;;5074757;28;20028;-61
2022/01/24 08:26:32;;;;;;;9.05;2.42;;;25.50;90.90;;;;;;5075651;28;20371;-56
2022/01/24 08:29:00;;;;;;;10.60;1.92;;;25.40;91.00;;;;;;5074141;28;20177;-61
2022/01/24 08:31:27;;;;;;;9.32;2.10;;;25.40;91.50;;;;;;5075258;28;20021;-53
2022/01/24 08:33:55;;;;;;;16.17;2.13;;;25.40;91.10;;;;;;5074232;28;20021;-60
2022/01/24 08:36:22;;;;;;;6.38;2.28;;;25.30;91.30;;;;;;5074821;28;20021;-58
2022/01/24 08:38:51;;;;;;;5.95;2.17;;;25.30;91.40;;;;;;5074835;28;20070;-62
2022/01/24 08:41:27;;;;;;;4.47;1.75;;;25.30;91.40;;;;;;5074376;28;20024;-63
2022/01/24 08:44:10;;;;;;;11.45;2.08;;;25.20;91.30;;;;;;5074801;28;20028;-64
2022/01/24 08:46:38;;;;;;;7.05;2.10;;;25.20;91.60;;;;;;5076320;28;20032;-64
2022/01/24 08:49:05;;;;;;;8.00;2.63;;;25.20;91.70;;;;;;5074538;28;20020;-67
2022/01/24 08:51:33;;;;;;;15.40;2.33;;;25.20;91.30;;;;;;5074815;28;20365;-62
2022/01/24 08:54:00;;;;;;;5.63;1.90;;;25.20;91.80;;;;;;5074314;28;20485;-61
2022/01/24 08:56:28;;;;;;;10.05;2.63;;;25.20;91.90;;;;;;5073346;28;20056;-63
2022/01/24 08:58:55;;;;;;;6.55;1.80;;;25.20;91.90;;;;;;5074545;28;20025;-62
2022/01/24 09:01:26;;;;;;;10.27;2.05;;;25.00;90.60;;;;;;5074834;28;20028;-65
2022/01/24 09:03:57;;;;;;;12.07;2.85;;;25.00;91.90;;;;;;5072910;28;20025;-65
2022/01/24 09:06:24;;;;;;;12.05;2.08;;;24.80;91.60;;;;;;5074248;28;20033;-64
2022/01/24 09:09:04;;;;;;;15.30;2.67;;;24.80;91.40;;;;;;5073164;28;20037;-57
2022/01/24 09:11:37;;;;;;;10.80;2.72;;;24.80;91.30;;;;;;5074230;28;20473;-64
2022/01/24 09:14:06;;;;;;;9.90;1.85;;;24.70;91.40;;;;;;5074349;28;20060;-60
2022/01/24 09:16:35;;;;;;;10.00;2.00;;;24.70;92.40;;;;;;5074517;28;20078;-61
2022/01/24 09:19:06;;;;;;;5.13;1.70;;;24.70;92.00;;;;;;5075280;28;20100;-61
2022/01/24 09:21:37;;;;;;;7.23;1.90;;;24.60;91.10;;;;;;5074779;28;20086;-66
2022/01/24 09:24:05;;;;;;;5.32;2.00;;;24.70;92.10;;;;;;5077400;28;20650;-64
2022/01/24 09:26:33;;;;;;;5.88;2.00;;;24.70;91.60;;;;;;5075858;28;20051;-60
2022/01/24 09:29:01;;;;;;;10.38;2.20;;;24.70;91.70;;;;;;5074675;28;20025;-60
2022/01/24 09:31:28;;;;;;;5.38;1.58;;;24.70;91.70;;;;;;5074473;28;20116;-62
2022/01/24 09:33:56;;;;;;;10.05;1.75;;;24.70;91.60;;;;;;5074042;28;20017;-60
2022/01/24 09:36:24;;;;;;;6.18;1.88;;;24.60;91.60;;;;;;5072940;28;20025;-61
2022/01/24 09:38:52;;;;;;;7.97;1.98;;;24.70;91.60;;;;;;5073829;28;20435;-55
2022/01/24 09:41:19;;;;;;;7.25;2.35;;;24.60;91.50;;;;;;5073988;28;20085;-61
2022/01/24 09:43:47;;;;;;;7.53;1.58;;;24.60;91.50;;;;;;5073726;28;20025;-62
2022/01/24 09:46:14;;;;;;;6.95;2.45;;;24.60;91.50;;;;;;5073545;28;20096;-61
2022/01/24 09:48:43;;;;;;;7.32;1.70;;;24.60;91.60;;;;;;5073769;28;20111;-63
2022/01/24 09:51:11;;;;;;;7.80;1.90;;;24.60;91.80;;;;;;5073512;28;20161;-58
2022/01/24 09:53:39;;;;;;;11.05;2.15;;;24.60;91.60;;;;;;5073044;28;20020;-62
2022/01/24 09:56:07;;;;;;;6.25;1.60;;;24.50;91.50;;;;;;5073083;28;20048;-60
2022/01/24 09:58:37;;;;;;;7.43;1.80;;;24.50;91.60;;;;;;5071875;28;20039;-63
2022/01/24 10:01:08;;;;;;;5.88;1.70;;;24.50;91.50;;;;;;5073682;28;20113;-63
2022/01/24 10:03:37;;;;;;;5.95;1.80;;;24.50;91.60;;;;;;5072742;28;20431;-62
2022/01/24 10:06:05;;;;;;;3.88;1.65;;;24.50;91.60;;;;;;5072581;28;20029;-60
2022/01/24 10:08:36;;;;;;;4.03;1.52;;;24.50;91.60;;;;;;5073826;28;20031;-58
2022/01/24 10:11:07;;;;;;;5.60;1.50;;;24.50;91.60;;;;;;5072179;28;20032;-61
2022/01/24 10:16:36;;;;;;;5.90;1.42;;;24.40;91.60;;;;;;5073641;28;20121;-59
2022/01/24 10:19:16;;;;;;;4.85;1.80;;;24.40;91.70;;;;;;5072773;28;20021;-56
2022/01/24 10:21:52;;;;;;;5.18;1.73;;;24.40;91.60;;;;;;5073401;28;20058;-56
2022/01/24 10:24:40;;;;;;;5.55;1.98;;;24.40;91.60;;;;;;5073135;28;20035;-60
2022/01/24 10:27:25;;;;;;;14.70;2.63;;;24.30;91.60;;;;;;5073810;28;20020;-61
2022/01/24 10:29:57;;;;;;;4.57;1.60;;;24.30;91.60;;;;;;5073472;28;20036;-61
2022/01/24 10:32:43;;;;;;;4.45;1.38;;;24.30;91.60;;;;;;5073414;28;20047;-62
2022/01/24 10:35:38;;;;;;;4.50;1.77;;;24.30;91.70;;;;;;5073623;28;20478;-62
2022/01/24 10:41:11;;;;;;;4.10;1.40;;;24.30;91.70;;;;;;5073213;28;20028;-63
2022/01/24 10:43:40;;;;;;;5.32;2.25;;;24.20;91.60;;;;;;5071446;28;20078;-61
2022/01/24 10:46:08;;;;;;;5.45;1.83;;;24.20;91.80;;;;;;5072928;28;20086;-60
2022/01/24 10:48:40;;;;;;;6.75;2.15;;;24.20;91.70;;;;;;5071624;28;20142;-60
2022/01/24 10:51:14;;;;;;;5.35;1.65;;;24.20;91.80;;;;;;5071603;28;20035;-59
2022/01/24 10:53:47;;;;;;;4.07;1.17;;;24.20;91.80;;;;;;5073451;28;20117;-61
2022/01/24 10:56:37;;;;;;;3.83;1.50;;;24.20;91.80;;;;;;5071671;28;20059;-60
2022/01/24 10:59:17;;;;;;;5.45;1.50;;;24.20;91.80;;;;;;5072836;28;20391;-62
2022/01/24 11:01:49;;;;;;;5.68;1.88;;;24.20;91.80;;;;;;5073111;28;20055;-61
2022/01/24 11:04:18;;;;;;;5.30;1.48;;;24.10;91.70;;;;;;5075160;28;20523;-58
2022/01/24 11:06:51;;;;;;;3.95;1.30;;;24.10;91.80;;;;;;5076088;28;20152;-59
2022/01/24 11:09:28;;;;;;;6.68;1.67;;;24.10;91.80;;;;;;5076915;28;20110;-62
2022/01/24 11:12:09;;;;;;;3.55;1.20;;;24.10;91.80;;;;;;5075532;28;20108;-60
2022/01/24 11:14:39;;;;;;;4.40;1.67;;;24.10;91.80;;;;;;5077201;28;20157;-56
2022/01/24 11:17:13;;;;;;;6.25;1.90;;;24.10;91.80;;;;;;5076926;28;20486;-62
2022/01/24 11:19:49;;;;;;;4.57;1.40;;;24.10;91.80;;;;;;5077059;28;20039;-62
2022/01/24 11:22:22;;;;;;;9.90;1.90;;;24.10;91.80;;;;;;5077022;28;20024;-58
2022/01/24 11:24:56;;;;;;;5.15;1.65;;;24.10;91.70;;;;;;5076815;28;20055;-61
2022/01/24 11:27:25;;;;;;;3.63;1.40;;;24.10;91.70;;;;;;5075312;28;20108;-61
2022/01/24 11:29:58;;;;;;;4.28;1.17;;;24.10;91.70;;;;;;5077104;28;20032;-57
2022/01/24 11:32:31;;;;;;;4.20;1.38;;;24.10;91.70;;;;;;5076409;28;20039;-59
2022/01/24 11:35:02;;;;;;;6.03;1.67;;;24.00;91.70;;;;;;5077137;28;20032;-62
2022/01/24 11:37:36;;;;;;;4.70;1.52;;;24.00;91.70;;;;;;5077126;28;20100;-53
2022/01/24 11:40:13;;;;;;;3.80;1.20;;;24.00;91.70;;;;;;5076496;28;20040;-58
2022/01/24 11:42:44;;;;;;;4.10;1.52;;;24.00;91.70;;;;;;5076059;28;20028;-52
2022/01/24 11:45:14;;;;;;;3.53;1.20;;;24.00;91.70;;;;;;5075042;28;20024;-61
2022/01/24 11:47:43;;;;;;;5.22;1.60;;;24.00;91.70;;;;;;5076040;28;20020;-57
2022/01/24 11:50:31;;;;;;;2.28;0.98;;;24.00;91.60;;;;;;5075876;28;20115;-54
2022/01/24 11:53:02;;;;;;;3.22;1.25;;;24.00;91.60;;;;;;5076391;28;20090;-55
2022/01/24 11:55:38;;;;;;;2.97;1.10;;;24.00;91.70;;;;;;5075707;28;20177;-60
2022/01/24 11:58:07;;;;;;;3.20;1.40;;;24.00;91.60;;;;;;5075727;28;20116;-60
2022/01/24 12:00:44;;;;;;;4.35;1.30;;;24.00;91.60;;;;;;5075790;28;20035;-59
2022/01/24 12:03:26;;;;;;;5.50;1.85;;;23.90;91.60;;;;;;5075760;28;20031;-61
2022/01/24 12:05:56;;;;;;;;;;;24.00;91.60;;;;;;5075885;28;20029;-59
2022/01/24 12:08:41;;;;;;;3.72;1.10;;;23.90;91.60;;;;;;5075380;28;19904;-57
2022/01/24 12:11:28;;;;;;;3.90;1.33;;;23.90;91.50;;;;;;5074222;28;20048;-59
2022/01/24 12:14:02;;;;;;;4.15;1.30;;;23.90;91.50;;;;;;5075610;28;20020;-62
2022/01/24 12:16:42;;;;;;;7.07;1.92;;;23.90;91.50;;;;;;5075052;28;20093;-59
2022/01/24 12:19:11;;;;;;;3.45;1.17;;;23.90;91.50;;;;;;5075738;28;20478;-53
2022/01/24 12:21:41;;;;;;;5.63;2.15;;;23.90;91.50;;;;;;5074257;28;20360;-57
2022/01/24 12:24:13;;;;;;;3.45;1.23;;;23.90;91.50;;;;;;5075471;28;20029;-49
2022/01/24 12:26:48;;;;;;;4.30;1.25;;;23.90;91.50;;;;;;5075637;28;20078;-56
2022/01/24 12:29:26;;;;;;;2.00;0.90;;;23.90;91.50;;;;;;5075823;28;20483;-56
2022/01/24 12:31:59;;;;;;;5.78;1.67;;;23.90;91.50;;;;;;5075595;28;20152;-58
2022/01/24 12:34:41;;;;;;;6.40;1.85;;;23.90;91.50;;;;;;5075271;28;20023;-60
2022/01/24 12:37:08;;;;;;;;;;;23.90;91.50;;;;;;5075756;28;20029;-58
2022/01/24 12:39:43;;;;;;;4.68;1.52;;;23.90;91.40;;;;;;5074231;28;19927;-57
2022/01/24 12:42:18;;;;;;;4.53;1.13;;;23.90;91.40;;;;;;5075353;28;20051;-60
2022/01/24 12:47:18;;;;;;;6.15;1.52;;;23.90;91.40;;;;;;5075384;28;20028;-57
2022/01/24 12:49:47;;;;;;;4.33;1.23;;;23.90;91.40;;;;;;5073985;28;20339;-55
2022/01/24 12:52:27;;;;;;;4.88;1.63;;;23.90;91.40;;;;;;5073033;28;20273;-60
2022/01/24 12:55:03;;;;;;;4.13;1.10;;;23.90;91.40;;;;;;5075264;28;20059;-59
2022/01/24 12:57:37;;;;;;;3.50;1.42;;;23.90;91.40;;;;;;5074772;28;20028;-53
2022/01/24 13:00:11;;;;;;;3.72;1.20;;;23.90;91.40;;;;;;5074379;28;20033;-58
2022/01/24 13:02:39;;;;;;;3.58;1.23;;;23.90;91.40;;;;;;5075468;28;20024;-57
2022/01/24 13:05:20;;;;;;;4.18;1.42;;;23.90;91.30;;;;;;5074756;28;20027;-61
2022/01/24 13:07:58;;;;;;;4.45;1.27;;;23.90;91.30;;;;;;5074808;28;20024;-59
2022/01/24 13:10:31;;;;;;;3.25;1.20;;;23.80;91.30;;;;;;5074625;28;20123;-57
2022/01/24 13:13:06;;;;;;;5.55;1.98;;;23.80;91.30;;;;;;5074483;28;20028;-60
2022/01/24 13:21:25;;;;;;;3.60;1.48;;;23.80;91.30;;;;;;5037225;28;20132;-63
2022/01/24 13:24:00;;;;;;;5.97;1.15;;;23.80;91.30;;;;;;5074084;28;20017;-62
2022/01/24 13:26:28;;;;;;;2.90;1.00;;;23.80;91.30;;;;;;5074379;28;20037;-60
2022/01/24 13:29:06;;;;;;;2.53;0.90;;;23.80;91.30;;;;;;5074285;28;20450;-59
2022/01/24 13:31:33;;;;;;;3.30;1.45;;;23.80;91.30;;;;;;5074082;28;20028;-61
2022/01/24 13:34:03;;;;;;;2.78;1.05;;;23.80;91.20;;;;;;5073633;28;20435;-60
2022/01/24 13:36:30;;;;;;;3.35;1.13;;;23.80;91.30;;;;;;5072952;28;20024;-58
2022/01/24 13:38:58;;;;;;;4.75;1.50;;;23.80;91.30;;;;;;5072826;28;20224;-61
2022/01/24 13:41:26;;;;;;;2.17;1.00;;;23.80;91.30;;;;;;5073712;28;20021;-58
2022/01/24 13:44:00;;;;;;;5.15;1.27;;;23.80;91.30;;;;;;5074031;28;20035;-60
2022/01/24 13:46:33;;;;;;;3.22;1.80;;;23.70;91.30;;;;;;5073836;28;20032;-59
2022/01/24 13:49:12;;;;;;;4.32;1.65;;;23.70;91.30;;;;;;5074177;28;20119;-53
2022/01/24 13:51:46;;;;;;;3.20;1.08;;;23.70;91.30;;;;;;5073684;28;20028;-59
2022/01/24 13:54:26;;;;;;;2.80;0.93;;;23.70;91.30;;;;;;5073759;28;20036;-57
2022/01/24 13:56:57;;;;;;;4.85;1.38;;;23.70;91.30;;;;;;5073942;28;20479;-61
2022/01/24 13:59:32;;;;;;;3.53;1.23;;;23.70;91.30;;;;;;5074140;28;20054;-58
2022/01/24 14:02:19;;;;;;;3.38;1.17;;;23.70;91.30;;;;;;5072102;28;20029;-57
2022/01/24 14:04:49;;;;;;;2.80;0.90;;;23.70;91.30;;;;;;5073449;28;20032;-62
2022/01/24 14:07:34;;;;;;;4.45;1.23;;;23.70;91.30;;;;;;5073492;28;20025;-61
2022/01/24 14:10:07;;;;;;;4.32;1.63;;;23.70;91.30;;;;;;5073051;28;20504;-49
2022/01/24 14:12:54;;;;;;;2.70;0.88;;;23.70;91.20;;;;;;5073193;28;20036;-53
2022/01/24 14:20:47;;;;;;;2.78;0.98;;;23.70;91.30;;;;;;5073122;28;20025;-59
2022/01/24 14:23:33;;;;;;;3.35;1.13;;;23.70;91.20;;;;;;5073324;28;20028;-60
2022/01/24 14:26:11;;;;;;;3.97;0.95;;;23.70;91.30;;;;;;5071555;28;20024;-57
2022/01/24 14:28:39;;;;;;;4.75;1.42;;;23.60;91.20;;;;;;5073223;28;20230;-60
2022/01/24 14:31:12;;;;;;;3.78;1.05;;;23.70;91.30;;;;;;5072946;28;20036;-58
2022/01/24 14:33:41;;;;;;;2.17;1.02;;;23.70;91.20;;;;;;5072960;28;20126;-61
2022/01/24 14:36:17;;;;;;;4.88;1.20;;;23.70;91.30;;;;;;5071744;28;20024;-60
2022/01/24 14:38:48;;;;;;;3.42;1.20;;;23.70;91.20;;;;;;5072287;28;20036;-58
2022/01/24 14:41:36;;;;;;;4.00;1.00;;;23.70;91.30;;;;;;5072916;28;20021;-59
2022/01/24 14:46:54;;;;;;;2.55;1.38;;;23.70;91.20;;;;;;5073906;28;20050;-61
2022/01/24 14:49:25;;;;;;;3.47;1.38;;;23.60;91.20;;;;;;5073238;28;20029;-58
2022/01/24 14:51:55;;;;;;;4.38;1.50;;;23.60;91.20;;;;;;5073246;28;20466;-60
2022/01/24 14:54:29;;;;;;;2.33;0.77;;;23.60;91.20;;;;;;5071495;28;20486;-58
2022/01/24 14:56:58;;;;;;;3.13;0.80;;;23.70;91.20;;;;;;5072600;28;20471;-61
2022/01/24 14:59:28;;;;;;;3.08;0.77;;;23.60;91.10;;;;;;5071621;28;20029;-55